Time;durP1;ratioP1;P1;durP2;ratioP2;P2;SDS_P1;SDS_P2;PMS_P1;PMS_P2;Temp;Humidity;BMP_temperature;BMP_pressure;BME280_temperature;BME280_humidity;BME280_pressure;Samples;Min_cycle;Max_cycle;Signal;HPM_P1;HPM_P2
2021/12/02 00:02:09;;;;;;;6.90;1.03;;;6.30;99.90;;;;;;4911741;29;20222;-89
2021/12/02 00:04:38;;;;;;;6.73;1.27;;;6.20;99.90;;;;;;4910576;29;20619;-89
2021/12/02 00:07:06;;;;;;;8.53;1.77;;;6.20;99.90;;;;;;4914224;29;20214;-85
2021/12/02 00:09:34;;;;;;;5.87;1.50;;;6.20;99.90;;;;;;4922546;29;20239;-82
2021/12/02 00:12:01;;;;;;;4.77;1.47;;;6.20;99.90;;;;;;4909332;29;20687;-80
2021/12/02 00:14:29;;;;;;;6.63;2.10;;;6.20;99.90;;;;;;4910473;29;20979;-80
2021/12/02 00:17:08;;;;;;;11.37;2.00;;;6.20;99.90;;;;;;4910709;29;20250;-89
2021/12/02 00:22:26;;;;;;;10.37;1.97;;;6.10;99.90;;;;;;4926783;29;20686;-85
2021/12/02 00:25:00;;;;;;;7.73;1.40;;;6.10;99.90;;;;;;4910855;29;20207;-88
2021/12/02 00:27:28;;;;;;;4.90;1.33;;;6.10;99.90;;;;;;4929331;29;20202;-83
2021/12/02 00:29:57;;;;;;;8.10;1.67;;;6.10;99.90;;;;;;4974923;28;20220;-87
2021/12/02 00:32:27;;;;;;;4.33;1.40;;;6.00;99.90;;;;;;4966928;28;20247;-84
2021/12/02 00:34:55;;;;;;;3.77;1.23;;;6.00;99.90;;;;;;4968658;28;20196;-80
2021/12/02 00:37:24;;;;;;;10.20;1.27;;;5.90;99.90;;;;;;4986371;28;20226;-89
2021/12/02 00:39:53;;;;;;;6.13;1.83;;;5.80;99.90;;;;;;4989250;28;20218;-85
2021/12/02 00:42:20;;;;;;;9.40;1.43;;;5.80;99.90;;;;;;5007441;28;20568;-90
2021/12/02 00:44:48;;;;;;;10.47;2.70;;;5.80;99.90;;;;;;5027188;28;20202;-86
2021/12/02 00:47:16;;;;;;;4.63;0.90;;;5.70;99.90;;;;;;5008653;28;20207;-89
2021/12/02 00:49:46;;;;;;;7.53;1.90;;;5.70;99.90;;;;;;5008629;28;20230;-89
2021/12/02 00:52:15;;;;;;;6.43;1.67;;;5.70;99.90;;;;;;5007290;28;20203;-83
2021/12/02 00:54:43;;;;;;;4.93;1.30;;;5.80;99.90;;;;;;5017696;28;20595;-83
2021/12/02 00:57:12;;;;;;;13.03;1.90;;;5.80;99.90;;;;;;5029051;28;20191;-86
2021/12/02 00:59:40;;;;;;;8.40;2.07;;;5.90;99.90;;;;;;5028478;28;20340;-84
2021/12/02 01:02:07;;;;;;;8.47;1.27;;;6.00;99.90;;;;;;5028482;28;20207;-82
2021/12/02 01:04:34;;;;;;;3.50;0.70;;;6.10;99.90;;;;;;5024997;28;20207;-84
2021/12/02 01:07:01;;;;;;;5.67;1.20;;;6.00;99.90;;;;;;5010688;28;20294;-91
2021/12/02 01:09:29;;;;;;;5.07;1.23;;;6.00;99.90;;;;;;5012900;28;20220;-88
2021/12/02 01:11:57;;;;;;;8.33;1.60;;;6.00;99.90;;;;;;5013035;28;20269;-85
2021/12/02 01:14:25;;;;;;;10.20;1.93;;;6.10;99.90;;;;;;5029970;28;20596;-85
2021/12/02 01:16:51;;;;;;;5.90;1.80;;;6.10;99.90;;;;;;5032696;28;20202;-89
2021/12/02 01:19:18;;;;;;;2.30;1.17;;;6.00;99.90;;;;;;5018419;28;20208;-84
2021/12/02 01:21:46;;;;;;;4.20;1.00;;;6.00;99.90;;;;;;5011340;28;20520;-80
2021/12/02 01:24:15;;;;;;;3.43;0.87;;;5.90;99.90;;;;;;5011407;28;20516;-79
2021/12/02 01:26:51;;;;;;;3.67;0.90;;;5.80;99.90;;;;;;5012624;28;20250;-83
2021/12/02 01:29:21;;;;;;;8.23;1.43;;;5.90;99.90;;;;;;5011862;28;20210;-83
2021/12/02 01:31:52;;;;;;;9.00;1.53;;;5.90;99.90;;;;;;5012940;28;20878;-78
2021/12/02 01:34:23;;;;;;;9.97;1.10;;;5.80;99.90;;;;;;5011950;28;20229;-82
2021/12/02 01:36:52;;;;;;;13.07;2.03;;;5.80;99.90;;;;;;5012683;28;20568;-90
2021/12/02 01:39:19;;;;;;;7.93;1.70;;;5.80;99.90;;;;;;5017183;28;20265;-89
2021/12/02 01:41:48;;;;;;;4.47;1.37;;;5.70;99.90;;;;;;5030068;28;20249;-87
2021/12/02 01:44:18;;;;;;;4.17;0.90;;;5.70;99.90;;;;;;5023604;28;20196;-80
2021/12/02 01:46:48;;;;;;;5.77;1.07;;;5.70;99.90;;;;;;5023620;28;20285;-80
2021/12/02 01:49:15;;;;;;;6.53;0.80;;;5.60;99.90;;;;;;5027534;28;20901;-79
2021/12/02 01:51:44;;;;;;;9.60;1.53;;;5.70;99.90;;;;;;5030097;28;20289;-81
2021/12/02 01:54:13;;;;;;;9.67;2.40;;;5.80;99.90;;;;;;5029921;28;20206;-81
2021/12/02 01:56:46;;;;;;;5.40;1.43;;;5.90;99.90;;;;;;5027362;28;20222;-79
2021/12/02 01:59:15;;;;;;;20.53;2.13;;;5.90;99.90;;;;;;5029979;28;20557;-85
2021/12/02 02:01:44;;;;;;;12.90;1.57;;;5.90;99.90;;;;;;5029752;28;20199;-86
2021/12/02 02:04:13;;;;;;;12.07;1.60;;;5.90;99.90;;;;;;5015312;28;20215;-81
2021/12/02 02:06:45;;;;;;;12.63;1.70;;;5.90;99.90;;;;;;5010227;28;20210;-82
2021/12/02 02:09:12;;;;;;;7.90;1.43;;;5.90;99.90;;;;;;5009335;28;20238;-81
2021/12/02 02:11:39;;;;;;;3.37;1.83;;;5.90;99.90;;;;;;5009278;28;20245;-82
2021/12/02 02:14:08;;;;;;;10.17;1.67;;;5.90;99.90;;;;;;5027037;28;20242;-83
2021/12/02 02:16:36;;;;;;;4.73;1.10;;;5.90;99.90;;;;;;5030489;28;20607;-84
2021/12/02 02:19:04;;;;;;;6.17;1.30;;;5.70;99.90;;;;;;5023376;28;20295;-82
2021/12/02 02:21:35;;;;;;;5.43;1.20;;;5.70;99.90;;;;;;5010513;28;20246;-83
2021/12/02 02:24:02;;;;;;;3.43;0.97;;;5.50;99.90;;;;;;5010294;28;20290;-81
2021/12/02 02:26:34;;;;;;;8.83;1.70;;;5.40;99.90;;;;;;5009602;28;20556;-83
2021/12/02 02:29:02;;;;;;;8.30;1.97;;;5.40;99.90;;;;;;5010520;28;20227;-84
2021/12/02 02:31:30;;;;;;;14.07;1.87;;;5.30;99.90;;;;;;5010993;28;21100;-86
2021/12/02 02:33:58;;;;;;;9.07;1.30;;;5.20;99.90;;;;;;5011350;28;20606;-84
2021/12/02 02:36:33;;;;;;;8.93;1.40;;;5.10;99.90;;;;;;5012535;28;20203;-86
2021/12/02 02:39:03;;;;;;;12.10;1.63;;;5.10;99.90;;;;;;5012687;28;20205;-85
2021/12/02 02:41:33;;;;;;;2.23;0.90;;;5.10;99.90;;;;;;5011651;28;20215;-84
2021/12/02 02:44:01;;;;;;;6.37;1.40;;;5.00;99.90;;;;;;5011863;28;20769;-84
2021/12/02 02:46:31;;;;;;;7.00;2.60;;;4.90;99.90;;;;;;5010998;28;20723;-83
2021/12/02 02:48:59;;;;;;;4.77;1.33;;;4.90;99.90;;;;;;5012488;28;20223;-86
2021/12/02 02:51:27;;;;;;;10.07;1.33;;;4.90;99.90;;;;;;5010867;28;20199;-86
2021/12/02 02:53:57;;;;;;;3.90;1.07;;;4.90;99.90;;;;;;5011062;28;20301;-87
2021/12/02 02:56:30;;;;;;;7.90;1.17;;;4.90;99.90;;;;;;5010577;28;20851;-82
2021/12/02 02:59:05;;;;;;;9.27;1.90;;;4.90;99.90;;;;;;5011118;28;20772;-87
2021/12/02 03:01:39;;;;;;;6.63;1.50;;;4.90;99.90;;;;;;5009912;28;20218;-88
2021/12/02 03:04:17;;;;;;;5.50;1.57;;;4.90;99.90;;;;;;5010038;28;20303;-81
2021/12/02 03:06:50;;;;;;;8.17;1.30;;;4.80;99.90;;;;;;5015822;23;20239;-82
2021/12/02 03:09:25;;;;;;;6.07;1.57;;;4.90;99.90;;;;;;5009263;28;20697;-84
2021/12/02 03:11:58;;;;;;;6.13;1.57;;;4.80;99.90;;;;;;5009368;28;20205;-83
2021/12/02 03:14:34;;;;;;;8.67;1.43;;;4.80;99.90;;;;;;5005836;28;20214;-83
2021/12/02 03:17:00;;;;;;;8.20;1.47;;;4.80;99.90;;;;;;5008701;28;20205;-80
2021/12/02 03:19:29;;;;;;;11.17;2.03;;;4.80;99.90;;;;;;5002786;28;20203;-82
2021/12/02 03:21:57;;;;;;;8.13;1.83;;;4.70;99.90;;;;;;4988903;28;20545;-82
2021/12/02 03:24:25;;;;;;;5.93;1.53;;;4.70;99.90;;;;;;4989156;28;20200;-81
2021/12/02 03:26:53;;;;;;;6.47;1.40;;;4.70;99.90;;;;;;4988343;28;20215;-81
2021/12/02 03:29:20;;;;;;;6.00;1.40;;;4.60;99.90;;;;;;4988514;28;20235;-83
2021/12/02 03:31:47;;;;;;;8.37;1.53;;;4.70;99.90;;;;;;4989843;28;20207;-84
2021/12/02 03:34:14;;;;;;;9.10;1.57;;;4.80;99.90;;;;;;4988373;28;20213;-89
2021/12/02 03:36:41;;;;;;;4.67;1.20;;;5.00;99.90;;;;;;4988562;28;20212;-80
2021/12/02 03:39:10;;;;;;;10.00;2.03;;;5.10;99.90;;;;;;4988839;28;20196;-82
2021/12/02 03:41:37;;;;;;;5.43;1.43;;;5.20;99.90;;;;;;4988678;28;20200;-81
2021/12/02 03:44:06;;;;;;;9.20;1.70;;;5.40;99.90;;;;;;4994653;28;20211;-81
2021/12/02 03:46:33;;;;;;;5.73;1.13;;;5.50;99.90;;;;;;5007528;28;20214;-83
2021/12/02 03:49:00;;;;;;;9.73;2.20;;;5.50;99.90;;;;;;5008046;28;20223;-85
2021/12/02 03:51:28;;;;;;;3.43;1.10;;;5.50;99.90;;;;;;5007075;28;20207;-81
2021/12/02 03:53:55;;;;;;;8.53;3.13;;;5.50;99.90;;;;;;5008853;28;20203;-81
2021/12/02 03:56:22;;;;;;;5.77;1.73;;;5.40;99.90;;;;;;5007230;28;20203;-90
2021/12/02 03:58:50;;;;;;;4.03;1.10;;;5.40;99.90;;;;;;5008441;28;20233;-83
2021/12/02 04:01:20;;;;;;;5.97;1.53;;;5.40;99.90;;;;;;5008284;28;20210;-81
2021/12/02 04:03:48;;;;;;;3.53;1.03;;;5.40;99.90;;;;;;5008278;28;20203;-80
2021/12/02 04:06:16;;;;;;;9.57;1.23;;;5.40;99.90;;;;;;4991576;28;20239;-82
2021/12/02 04:08:46;;;;;;;8.37;1.57;;;5.40;99.90;;;;;;4988242;28;20200;-81
2021/12/02 04:11:22;;;;;;;6.03;1.20;;;5.40;99.90;;;;;;4987614;28;20211;-79
2021/12/02 04:13:59;;;;;;;5.37;0.90;;;5.40;99.90;;;;;;5003364;28;20225;-79
2021/12/02 04:16:33;;;;;;;12.97;1.63;;;5.40;99.90;;;;;;5009258;28;20207;-79
2021/12/02 04:19:00;;;;;;;4.37;1.07;;;5.50;99.90;;;;;;5013870;28;20325;-79
2021/12/02 04:21:27;;;;;;;9.07;1.80;;;5.60;99.90;;;;;;5010141;28;20237;-79
2021/12/02 04:23:54;;;;;;;9.83;1.60;;;5.50;99.90;;;;;;4993889;28;20210;-91
2021/12/02 04:26:21;;;;;;;3.83;1.27;;;5.60;99.90;;;;;;4994543;28;20208;-87
2021/12/02 04:28:47;;;;;;;6.80;1.20;;;5.50;99.90;;;;;;5011823;28;20215;-90
2021/12/02 04:31:14;;;;;;;8.57;1.57;;;5.40;99.90;;;;;;4997823;28;20203;-86
2021/12/02 04:33:43;;;;;;;3.33;1.17;;;5.20;99.90;;;;;;4990162;28;20629;-91
2021/12/02 04:36:10;;;;;;;1.70;1.10;;;5.00;99.90;;;;;;5010848;28;20203;-81
2021/12/02 04:38:37;;;;;;;6.33;0.80;;;4.90;99.90;;;;;;5009971;28;20226;-91
2021/12/02 04:41:04;;;;;;;8.77;1.27;;;4.80;99.90;;;;;;5011047;28;20199;-91
2021/12/02 04:43:30;;;;;;;4.50;1.20;;;4.80;99.90;;;;;;5000790;28;20626;-88
2021/12/02 04:45:57;;;;;;;7.47;1.57;;;4.70;99.90;;;;;;4995070;28;20207;-81
2021/12/02 04:48:24;;;;;;;8.30;1.37;;;4.80;99.90;;;;;;4991619;28;20490;-87
2021/12/02 04:50:53;;;;;;;5.63;1.03;;;4.80;99.90;;;;;;4992652;28;20223;-86
2021/12/02 04:53:20;;;;;;;4.87;1.23;;;4.90;99.90;;;;;;4996983;28;20199;-85
2021/12/02 04:55:47;;;;;;;2.57;0.90;;;4.90;99.90;;;;;;5013804;28;20611;-80
2021/12/02 04:58:14;;;;;;;5.30;0.90;;;4.80;99.90;;;;;;5013647;28;20206;-87
2021/12/02 05:00:40;;;;;;;5.30;1.47;;;4.80;99.90;;;;;;5012745;28;20203;-84
2021/12/02 05:03:07;;;;;;;5.07;1.30;;;4.80;99.90;;;;;;5013260;28;20211;-85
2021/12/02 05:05:34;;;;;;;5.57;1.13;;;4.70;99.90;;;;;;5011866;28;20196;-88
2021/12/02 05:08:03;;;;;;;5.23;1.17;;;4.70;99.90;;;;;;5012459;28;20508;-84
2021/12/02 05:10:31;;;;;;;6.97;1.40;;;4.70;99.90;;;;;;5011451;28;20227;-83
2021/12/02 05:12:58;;;;;;;4.90;1.20;;;4.80;99.90;;;;;;5011333;28;20222;-82
2021/12/02 05:15:25;;;;;;;7.77;1.57;;;4.80;99.90;;;;;;5011028;28;20203;-80
2021/12/02 05:17:52;;;;;;;11.90;2.53;;;4.90;99.90;;;;;;5012444;28;20560;-87
2021/12/02 05:20:19;;;;;;;9.30;1.73;;;4.90;99.90;;;;;;5013647;28;20216;-91
2021/12/02 05:22:46;;;;;;;10.33;2.20;;;5.00;99.90;;;;;;5013393;28;20215;-87
2021/12/02 05:25:14;;;;;;;6.40;1.40;;;4.90;99.90;;;;;;5013403;28;20199;-89
2021/12/02 05:27:41;;;;;;;7.90;1.50;;;4.90;99.90;;;;;;5012166;28;20860;-83
2021/12/02 05:30:09;;;;;;;8.20;2.40;;;4.90;99.90;;;;;;5011287;28;20235;-81
2021/12/02 05:32:36;;;;;;;13.90;2.00;;;5.00;99.90;;;;;;5010302;28;20191;-81
2021/12/02 05:35:04;;;;;;;10.50;1.40;;;4.90;99.90;;;;;;5011789;28;20210;-81
2021/12/02 05:37:31;;;;;;;11.33;1.97;;;4.90;99.90;;;;;;5010854;28;20215;-83
2021/12/02 05:39:58;;;;;;;14.60;2.17;;;4.90;99.90;;;;;;5011334;28;20900;-83
2021/12/02 05:42:26;;;;;;;6.97;1.50;;;5.00;99.90;;;;;;5011576;28;20233;-84
2021/12/02 05:44:53;;;;;;;8.60;1.83;;;5.00;99.90;;;;;;5011113;28;20215;-87
2021/12/02 05:47:20;;;;;;;8.83;1.80;;;5.10;99.90;;;;;;5012839;28;20200;-84
2021/12/02 05:49:47;;;;;;;11.13;1.53;;;5.10;99.90;;;;;;5013603;28;20231;-86
2021/12/02 05:52:14;;;;;;;7.57;1.43;;;5.00;99.90;;;;;;5013628;28;20200;-85
2021/12/02 05:54:41;;;;;;;10.90;2.33;;;4.80;99.90;;;;;;5012749;28;20615;-86
2021/12/02 05:57:08;;;;;;;8.50;1.80;;;4.70;99.90;;;;;;5012880;28;20533;-84
2021/12/02 05:59:36;;;;;;;9.20;1.80;;;4.50;99.90;;;;;;5013507;28;20200;-85
2021/12/02 06:02:06;;;;;;;7.97;1.60;;;4.50;99.90;;;;;;5013720;28;20215;-83
2021/12/02 06:04:34;;;;;;;14.00;2.60;;;4.40;99.90;;;;;;5013281;28;20234;-86
2021/12/02 06:07:00;;;;;;;11.80;2.53;;;4.40;99.90;;;;;;5013842;28;20309;-87
2021/12/02 06:09:27;;;;;;;10.30;2.67;;;4.40;99.90;;;;;;5012488;28;20211;-85
2021/12/02 06:11:54;;;;;;;10.50;1.73;;;4.60;99.90;;;;;;5013901;28;20206;-86
2021/12/02 06:14:21;;;;;;;11.77;2.20;;;4.70;99.90;;;;;;5013171;28;20214;-88
2021/12/02 06:16:49;;;;;;;6.87;2.00;;;4.70;99.90;;;;;;5012203;28;20207;-86
2021/12/02 06:19:16;;;;;;;9.13;1.37;;;4.70;99.90;;;;;;5011626;28;20211;-85
2021/12/02 06:21:42;;;;;;;7.07;1.73;;;4.70;99.90;;;;;;5011485;28;20211;-83
2021/12/02 06:24:09;;;;;;;8.07;1.40;;;4.70;99.90;;;;;;5012208;28;20207;-84
2021/12/02 06:26:37;;;;;;;8.10;1.57;;;4.70;99.90;;;;;;5011985;28;20215;-85
2021/12/02 06:29:04;;;;;;;5.77;1.27;;;4.80;99.90;;;;;;5012145;28;20234;-87
2021/12/02 06:31:31;;;;;;;8.00;1.73;;;4.80;99.90;;;;;;5010241;28;20223;-84
2021/12/02 06:33:59;;;;;;;8.10;1.60;;;4.90;99.90;;;;;;5014292;28;20199;-84
2021/12/02 06:36:26;;;;;;;8.97;2.33;;;4.90;99.90;;;;;;5011559;28;20248;-81
2021/12/02 06:38:53;;;;;;;13.67;3.33;;;4.90;99.90;;;;;;5012053;28;20214;-87
2021/12/02 06:41:20;;;;;;;9.23;2.60;;;5.00;99.90;;;;;;5012373;28;20207;-83
2021/12/02 06:43:47;;;;;;;10.87;1.70;;;4.90;99.90;;;;;;5011762;28;20199;-85
2021/12/02 06:46:13;;;;;;;8.73;1.50;;;4.70;99.90;;;;;;4998343;28;20231;-83
2021/12/02 06:48:40;;;;;;;5.23;1.53;;;4.50;99.90;;;;;;4990895;28;20319;-82
2021/12/02 06:51:12;;;;;;;7.20;1.80;;;4.40;99.90;;;;;;4991542;28;20232;-83
2021/12/02 06:53:39;;;;;;;5.07;1.30;;;4.30;99.90;;;;;;4990663;28;20619;-82
2021/12/02 06:56:06;;;;;;;5.20;1.30;;;4.20;99.90;;;;;;5009331;28;20215;-83
2021/12/02 06:58:33;;;;;;;6.73;1.07;;;4.10;99.90;;;;;;5010201;28;20203;-84
2021/12/02 07:01:00;;;;;;;5.23;1.30;;;3.90;99.90;;;;;;5010884;28;20655;-83
2021/12/02 07:03:26;;;;;;;3.00;1.00;;;3.80;99.90;;;;;;5010452;28;20207;-82
2021/12/02 07:05:55;;;;;;;6.80;1.20;;;3.80;99.90;;;;;;5010077;28;20739;-82
2021/12/02 07:08:24;;;;;;;4.93;1.47;;;3.70;99.90;;;;;;5010055;28;20222;-83
2021/12/02 07:10:51;;;;;;;7.53;1.50;;;3.70;99.90;;;;;;5009905;28;20225;-83
2021/12/02 07:13:18;;;;;;;5.80;1.40;;;3.70;99.90;;;;;;5009941;28;20199;-83
2021/12/02 07:15:46;;;;;;;3.40;1.30;;;3.60;99.90;;;;;;5009430;28;20215;-83
2021/12/02 07:18:14;;;;;;;3.33;1.33;;;3.60;99.90;;;;;;5008468;28;20238;-81
2021/12/02 07:20:44;;;;;;;7.23;1.33;;;3.60;99.90;;;;;;5004717;28;20227;-81
2021/12/02 07:23:11;;;;;;;4.60;1.43;;;3.50;99.90;;;;;;4988822;28;20774;-80
2021/12/02 07:25:40;;;;;;;5.17;1.10;;;3.40;99.90;;;;;;4988471;28;20210;-82
2021/12/02 07:28:09;;;;;;;8.93;2.00;;;3.40;99.90;;;;;;4988169;28;20298;-82
2021/12/02 07:30:36;;;;;;;5.20;1.37;;;3.30;99.90;;;;;;4993823;28;20520;-81
2021/12/02 07:33:04;;;;;;;6.03;1.17;;;3.30;99.90;;;;;;5007481;28;20214;-81
2021/12/02 07:35:31;;;;;;;7.33;3.23;;;3.20;99.90;;;;;;5007031;28;20608;-81
2021/12/02 07:37:59;;;;;;;4.93;2.20;;;3.20;99.90;;;;;;5007461;28;20195;-82
2021/12/02 07:40:28;;;;;;;4.37;1.30;;;3.20;99.90;;;;;;5006144;28;20199;-82
2021/12/02 07:43:44;;;;;;;3.63;1.30;;;3.20;99.90;;;;;;4989837;28;20509;-80
2021/12/02 07:46:12;;;;;;;4.13;1.57;;;3.30;99.90;;;;;;4988833;28;20266;-80
2021/12/02 07:48:40;;;;;;;2.17;0.80;;;3.40;99.90;;;;;;4992105;28;20204;-82
2021/12/02 07:51:10;;;;;;;7.13;1.97;;;3.40;99.90;;;;;;5007062;28;20222;-82
2021/12/02 07:53:40;;;;;;;4.40;0.77;;;3.40;99.90;;;;;;5006339;28;20210;-82
2021/12/02 07:56:10;;;;;;;3.27;0.50;;;3.50;99.90;;;;;;4994072;28;20211;-80
2021/12/02 07:58:41;;;;;;;11.43;1.60;;;3.50;99.90;;;;;;4988075;28;20592;-82
2021/12/02 08:01:08;;;;;;;4.03;0.50;;;3.60;99.90;;;;;;4989061;28;20208;-81
2021/12/02 08:04:09;;;;;;;1.40;0.73;;;3.60;99.90;;;;;;4986879;28;20791;-80
2021/12/02 08:06:36;;;;;;;2.33;1.03;;;3.60;99.90;;;;;;5002688;28;20245;-80
2021/12/02 08:09:05;;;;;;;4.43;1.37;;;3.70;99.90;;;;;;5007561;28;20207;-82
2021/12/02 08:11:32;;;;;;;1.00;0.50;;;3.70;99.90;;;;;;5007722;28;20223;-82
2021/12/02 08:13:59;;;;;;;3.57;0.60;;;3.70;99.90;;;;;;4999887;28;20319;-81
2021/12/02 08:16:27;;;;;;;4.57;0.90;;;3.70;99.90;;;;;;4988339;28;20290;-82
2021/12/02 08:18:53;;;;;;;5.53;1.13;;;3.70;99.90;;;;;;4989981;28;20218;-83
2021/12/02 08:21:21;;;;;;;2.97;0.90;;;3.80;99.90;;;;;;4987766;28;20220;-83
2021/12/02 08:23:48;;;;;;;3.80;0.90;;;3.80;99.90;;;;;;4993641;28;20218;-83
2021/12/02 08:26:17;;;;;;;5.17;1.10;;;3.80;99.90;;;;;;5000735;28;20591;-82
2021/12/02 08:28:44;;;;;;;4.97;1.27;;;3.90;99.90;;;;;;5002191;28;20286;-81
2021/12/02 08:31:11;;;;;;;6.23;1.20;;;3.90;99.90;;;;;;4999196;28;20211;-81
2021/12/02 08:33:38;;;;;;;8.90;1.10;;;3.90;99.90;;;;;;4998269;28;20765;-82
2021/12/02 08:36:05;;;;;;;13.37;3.03;;;4.00;99.90;;;;;;5007939;28;20203;-82
2021/12/02 08:38:35;;;;;;;5.20;1.23;;;4.00;99.90;;;;;;5008516;28;20218;-82
2021/12/02 08:41:02;;;;;;;4.60;0.90;;;4.10;99.90;;;;;;4994695;28;20196;-83
2021/12/02 08:43:29;;;;;;;4.00;0.90;;;4.20;99.90;;;;;;4999640;28;20231;-84
2021/12/02 08:45:57;;;;;;;5.07;1.13;;;4.10;99.90;;;;;;5008870;28;20248;-83
2021/12/02 08:48:23;;;;;;;3.83;0.80;;;4.10;99.90;;;;;;4994306;28;20207;-83
2021/12/02 08:50:50;;;;;;;7.07;3.00;;;4.10;99.90;;;;;;4992291;28;20636;-83
2021/12/02 08:53:18;;;;;;;9.50;3.00;;;4.10;99.90;;;;;;5009631;28;20192;-84
2021/12/02 08:55:46;;;;;;;3.07;1.00;;;4.10;99.90;;;;;;5009804;28;20207;-83
2021/12/02 08:58:12;;;;;;;5.20;1.00;;;4.10;99.90;;;;;;5009078;28;20207;-83
2021/12/02 09:00:41;;;;;;;5.80;1.77;;;4.10;99.90;;;;;;5006370;28;20207;-84
2021/12/02 09:03:09;;;;;;;8.33;1.33;;;4.20;99.90;;;;;;5003910;28;20203;-83
2021/12/02 09:05:37;;;;;;;8.57;2.27;;;4.20;99.90;;;;;;4994592;28;20776;-82
2021/12/02 09:08:05;;;;;;;6.30;1.43;;;4.40;99.90;;;;;;5004023;28;20655;-82
2021/12/02 09:10:32;;;;;;;3.87;1.10;;;4.60;99.90;;;;;;5008754;28;20658;-84
2021/12/02 09:13:03;;;;;;;6.77;1.53;;;4.70;99.90;;;;;;5007760;28;20211;-84
2021/12/02 09:15:30;;;;;;;10.47;3.20;;;4.90;99.90;;;;;;5008684;28;20261;-83
2021/12/02 09:17:57;;;;;;;6.03;1.23;;;4.90;99.90;;;;;;5009775;28;20202;-83
2021/12/02 09:20:24;;;;;;;5.17;1.33;;;5.00;99.90;;;;;;5008833;28;20205;-83
2021/12/02 09:22:51;;;;;;;4.73;1.50;;;5.00;99.90;;;;;;5001872;28;20232;-81
2021/12/02 09:25:18;;;;;;;7.73;1.20;;;4.90;99.90;;;;;;4986404;28;20211;-84
2021/12/02 09:27:46;;;;;;;3.50;1.10;;;4.80;99.90;;;;;;4987781;28;20207;-83
2021/12/02 09:30:16;;;;;;;4.83;0.90;;;4.70;99.90;;;;;;4989539;28;20196;-83
2021/12/02 09:32:43;;;;;;;5.93;1.57;;;4.60;99.90;;;;;;4989391;28;20584;-80
2021/12/02 09:35:11;;;;;;;2.83;1.10;;;4.50;99.90;;;;;;4988871;28;20207;-81
2021/12/02 09:37:38;;;;;;;2.03;0.80;;;4.40;99.90;;;;;;5004782;28;20218;-80
2021/12/02 09:40:08;;;;;;;4.40;1.20;;;4.30;99.90;;;;;;5009074;28;20199;-81
2021/12/02 09:42:36;;;;;;;2.83;0.90;;;4.30;99.90;;;;;;5010762;28;20188;-83
2021/12/02 09:45:04;;;;;;;2.90;1.37;;;4.20;99.90;;;;;;5001703;28;20208;-82
2021/12/02 09:47:35;;;;;;;3.57;1.20;;;4.20;99.90;;;;;;4996139;28;20251;-83
2021/12/02 09:50:07;;;;;;;6.13;1.60;;;4.20;99.90;;;;;;5013040;28;20330;-83
2021/12/02 09:52:37;;;;;;;3.73;0.90;;;4.20;99.90;;;;;;5015133;28;20219;-82
2021/12/02 09:55:07;;;;;;;5.67;1.30;;;4.20;99.90;;;;;;5013747;28;20222;-84
2021/12/02 09:57:37;;;;;;;3.83;0.90;;;4.10;99.90;;;;;;5008236;28;20210;-82
2021/12/02 10:00:07;;;;;;;2.47;0.97;;;4.00;99.90;;;;;;5007386;28;20207;-82
2021/12/02 10:02:41;;;;;;;5.07;1.20;;;4.00;99.90;;;;;;4989138;28;20196;-82
2021/12/02 10:05:12;;;;;;;2.57;1.13;;;4.00;99.90;;;;;;5003438;28;20290;-81
2021/12/02 10:07:53;;;;;;;2.87;0.90;;;3.90;99.90;;;;;;5009562;28;20243;-80
2021/12/02 10:10:29;;;;;;;4.27;2.43;;;3.90;99.90;;;;;;5007910;28;20492;-81
2021/12/02 10:13:12;;;;;;;4.10;1.90;;;3.80;99.90;;;;;;5009371;28;20209;-81
2021/12/02 10:15:41;;;;;;;1.63;1.10;;;3.80;99.90;;;;;;5008210;28;20226;-81
2021/12/02 10:18:15;;;;;;;4.23;1.13;;;3.80;99.90;;;;;;5010167;28;20215;-80
2021/12/02 10:20:44;;;;;;;3.90;1.20;;;3.80;99.90;;;;;;5008968;28;20233;-83
2021/12/02 10:23:15;;;;;;;4.70;2.17;;;3.80;99.90;;;;;;5010466;28;20308;-81
2021/12/02 10:25:47;;;;;;;4.43;2.33;;;3.80;99.90;;;;;;5011242;28;20209;-83
2021/12/02 10:28:16;;;;;;;4.20;2.13;;;3.80;99.90;;;;;;5011826;28;20207;-83
2021/12/02 10:30:45;;;;;;;3.17;1.47;;;3.80;99.90;;;;;;4997547;28;20203;-83
2021/12/02 10:33:13;;;;;;;3.60;1.30;;;3.90;99.90;;;;;;4991997;28;20206;-84
2021/12/02 10:35:42;;;;;;;3.30;1.23;;;3.90;99.90;;;;;;4990651;28;20254;-85
2021/12/02 10:38:36;;;;;;;3.33;1.43;;;3.90;99.90;;;;;;4990080;28;20215;-84
2021/12/02 10:41:06;;;;;;;3.47;1.20;;;3.90;99.90;;;;;;4989471;28;20648;-84
2021/12/02 10:43:33;;;;;;;3.30;1.03;;;4.00;99.90;;;;;;4990963;28;20304;-85
2021/12/02 10:46:14;;;;;;;2.03;1.00;;;4.00;99.90;;;;;;5011880;28;20226;-83
2021/12/02 10:48:49;;;;;;;2.93;0.90;;;4.10;99.90;;;;;;4999941;28;20219;-82
2021/12/02 10:51:39;;;;;;;2.20;1.00;;;4.10;99.90;;;;;;4990470;28;20231;-82
2021/12/02 10:54:12;;;;;;;6.10;1.50;;;4.10;99.90;;;;;;4991416;28;20218;-83
2021/12/02 10:56:40;;;;;;;3.90;0.73;;;4.10;99.90;;;;;;5001049;28;20226;-82
2021/12/02 10:59:35;;;;;;;3.33;1.00;;;4.10;99.90;;;;;;5009159;28;20838;-83
2021/12/02 11:02:06;;;;;;;1.60;0.70;;;4.10;99.90;;;;;;4990362;28;20200;-82
2021/12/02 11:04:44;;;;;;;4.10;0.77;;;4.10;99.90;;;;;;4995569;28;20207;-84
2021/12/02 11:07:13;;;;;;;2.53;0.80;;;4.00;99.90;;;;;;5011910;28;20357;-84
2021/12/02 11:09:41;;;;;;;1.07;0.70;;;4.00;99.90;;;;;;5011159;28;20607;-84
2021/12/02 11:12:15;;;;;;;2.37;0.93;;;4.00;99.90;;;;;;5011422;28;20230;-84
2021/12/02 11:14:52;;;;;;;0.60;0.60;;;4.00;99.90;;;;;;5012073;28;20188;-85
2021/12/02 11:17:20;;;;;;;0.53;0.53;;;4.00;99.90;;;;;;4992087;28;20215;-83
2021/12/02 11:19:51;;;;;;;1.13;0.60;;;4.10;99.90;;;;;;4990324;28;20291;-80
2021/12/02 11:22:20;;;;;;;1.70;1.30;;;4.10;99.90;;;;;;4999235;28;20230;-83
2021/12/02 11:24:48;;;;;;;1.83;0.90;;;4.20;99.90;;;;;;5011172;28;20596;-83
2021/12/02 11:27:18;;;;;;;0.87;0.77;;;4.20;99.90;;;;;;5009907;28;20604;-83
2021/12/02 11:29:50;;;;;;;0.97;0.60;;;4.30;99.90;;;;;;5002991;28;20207;-81
2021/12/02 11:32:35;;;;;;;1.93;1.07;;;4.30;99.90;;;;;;4990113;28;20224;-82
2021/12/02 11:35:24;;;;;;;2.77;0.53;;;4.30;99.90;;;;;;4991427;28;20188;-83
2021/12/02 11:37:53;;;;;;;0.70;0.50;;;4.30;99.90;;;;;;4991552;28;20211;-85
2021/12/02 11:40:22;;;;;;;1.47;0.50;;;4.40;99.90;;;;;;4991418;28;20247;-83
2021/12/02 11:42:50;;;;;;;1.13;0.40;;;4.50;99.90;;;;;;4991456;28;20200;-81
2021/12/02 11:45:18;;;;;;;2.23;0.70;;;4.60;99.90;;;;;;5005042;28;20248;-83
2021/12/02 11:47:45;;;;;;;1.33;0.70;;;4.70;99.90;;;;;;5008798;28;20211;-82
2021/12/02 11:50:17;;;;;;;3.60;0.70;;;4.80;99.90;;;;;;5008666;28;20357;-83
2021/12/02 11:52:44;;;;;;;3.87;1.33;;;4.80;99.90;;;;;;5008621;28;20223;-82
2021/12/02 11:55:15;;;;;;;5.23;1.30;;;4.80;99.90;;;;;;5008956;28;20210;-83
2021/12/02 11:57:42;;;;;;;2.73;1.27;;;4.90;99.90;;;;;;5009390;28;20302;-81
2021/12/02 12:00:13;;;;;;;2.20;1.10;;;4.90;99.90;;;;;;5008212;28;20207;-80
2021/12/02 12:02:47;;;;;;;2.77;1.03;;;5.00;99.90;;;;;;5008575;28;20228;-84
2021/12/02 12:05:20;;;;;;;4.30;1.30;;;5.00;99.90;;;;;;5010572;28;20285;-84
2021/12/02 12:07:48;;;;;;;7.20;1.13;;;5.00;99.90;;;;;;5010139;28;20207;-86
2021/12/02 12:10:18;;;;;;;9.87;1.30;;;5.10;99.90;;;;;;5009830;28;20211;-84
2021/12/02 12:12:45;;;;;;;8.63;1.23;;;5.20;99.90;;;;;;5009224;28;20639;-85
2021/12/02 12:15:38;;;;;;;5.27;1.63;;;5.30;99.90;;;;;;5009768;28;20214;-85
2021/12/02 12:18:07;;;;;;;3.73;1.57;;;5.40;99.90;;;;;;4998038;28;20215;-82
2021/12/02 12:20:56;;;;;;;7.03;2.03;;;5.50;99.90;;;;;;4998445;28;20628;-85
2021/12/02 12:23:40;;;;;;;7.17;1.87;;;5.50;99.90;;;;;;4999763;28;20237;-85
2021/12/02 12:26:27;;;;;;;7.63;1.83;;;5.50;99.90;;;;;;5011177;28;20206;-83
2021/12/02 12:29:33;;;;;;;7.33;2.17;;;5.50;99.90;;;;;;5010615;28;20211;-84
2021/12/02 12:32:49;;;;;;;9.23;2.33;;;5.40;99.90;;;;;;4988844;28;20647;-85
2021/12/02 12:35:29;;;;;;;11.40;1.60;;;5.50;99.90;;;;;;5004619;28;20353;-84
2021/12/02 12:38:05;;;;;;;8.63;1.23;;;5.50;99.90;;;;;;5003177;28;20206;-85
2021/12/02 12:40:47;;;;;;;2.63;1.00;;;5.70;99.90;;;;;;4990100;28;20219;-83
2021/12/02 12:43:45;;;;;;;6.17;0.70;;;5.70;99.90;;;;;;4990604;28;20203;-86
2021/12/02 12:46:18;;;;;;;1.37;0.33;;;5.70;99.90;;;;;;5003795;28;20199;-82
2021/12/02 12:48:46;;;;;;;1.27;0.50;;;5.50;99.90;;;;;;5009577;28;20580;-83
2021/12/02 12:51:35;;;;;;;1.53;0.60;;;5.50;99.90;;;;;;5009478;28;20207;-83
2021/12/02 12:54:06;;;;;;;1.60;0.50;;;5.50;99.90;;;;;;5004807;28;20217;-83
2021/12/02 12:56:39;;;;;;;1.63;0.77;;;5.40;99.90;;;;;;5008438;28;20198;-82
2021/12/02 12:59:11;;;;;;;1.77;0.50;;;5.40;99.90;;;;;;4990210;28;20509;-83
2021/12/02 13:01:40;;;;;;;0.40;0.40;;;5.40;99.90;;;;;;4989990;28;20545;-81
2021/12/02 13:04:18;;;;;;;1.43;0.53;;;5.40;99.90;;;;;;4993178;28;20219;-83
2021/12/02 13:07:13;;;;;;;1.27;0.60;;;5.40;99.90;;;;;;4993931;28;20326;-80
2021/12/02 13:10:11;;;;;;;1.07;0.50;;;5.40;99.90;;;;;;4993668;28;20287;-82
2021/12/02 13:13:00;;;;;;;0.67;0.50;;;5.50;99.90;;;;;;4997651;28;20277;-82
2021/12/02 13:15:29;;;;;;;1.20;0.63;;;5.60;99.90;;;;;;5012060;28;20592;-82